createdAt,value
2024-03-09T00:02:03.081Z,101278.25
2024-03-09T00:04:32.869Z,101279.09
2024-03-09T00:07:02.503Z,101280.06
2024-03-09T00:09:37.261Z,101280.00
2024-03-09T00:12:10.930Z,101279.25
2024-03-09T00:14:40.960Z,101282.69
2024-03-09T00:17:10.672Z,101287.19
2024-03-09T00:19:42.375Z,101282.69
2024-03-09T00:22:12.244Z,101289.69
2024-03-09T00:24:41.885Z,101288.88
2024-03-09T00:27:13.765Z,101290.53
2024-03-09T00:29:43.470Z,101299.25
2024-03-09T00:32:13.917Z,101298.38
2024-03-09T00:34:43.575Z,101303.78
2024-03-09T00:37:14.320Z,101301.03
2024-03-09T00:39:45.401Z,101308.88
2024-03-09T00:42:22.179Z,101301.84
2024-03-09T00:44:52.666Z,101306.13
2024-03-09T00:47:23.420Z,101300.06
2024-03-09T00:49:53.173Z,101312.31
2024-03-09T00:52:22.835Z,101307.91
2024-03-09T00:54:52.554Z,101317.56
2024-03-09T00:57:23.558Z,101318.41
2024-03-09T00:59:55.140Z,101310.59
2024-03-09T01:02:24.968Z,101314.03
2024-03-09T01:04:54.718Z,101320.06
2024-03-09T01:07:26.508Z,101318.28
2024-03-09T01:09:56.199Z,101320.97
2024-03-09T01:12:26.550Z,101323.56
2024-03-09T01:14:56.860Z,101321.94
2024-03-09T01:17:29.670Z,101317.38
2024-03-09T01:20:02.585Z,101313.03
2024-03-09T01:22:32.420Z,101313.03
2024-03-09T01:25:02.263Z,101318.25
2024-03-09T01:27:31.964Z,101313.88
2024-03-09T01:30:04.456Z,101317.44
2024-03-09T01:32:36.885Z,101318.25
2024-03-09T01:35:07.004Z,101319.09
2024-03-09T01:37:36.791Z,101319.06
2024-03-09T01:40:08.114Z,101322.50
2024-03-09T01:42:37.824Z,101314.72
2024-03-09T01:45:08.595Z,101320.03
2024-03-09T01:47:39.573Z,101314.72
2024-03-09T01:50:15.946Z,101318.28
2024-03-09T01:52:50.884Z,101307.59
2024-03-09T01:55:22.786Z,101310.31
2024-03-09T01:57:53.404Z,101301.53
2024-03-09T02:00:27.381Z,101304.09
2024-03-09T02:02:58.523Z,101309.28
2024-03-09T02:05:28.631Z,101300.53
2024-03-09T02:07:58.474Z,101308.44
2024-03-09T02:10:28.522Z,101301.25
2024-03-09T02:13:00.610Z,101305.66
2024-03-09T02:15:32.642Z,101313.59
2024-03-09T02:18:02.995Z,101315.25
2024-03-09T02:20:34.088Z,101318.00
2024-03-09T02:23:04.154Z,101311.78
2024-03-09T02:25:34.024Z,101309.16
2024-03-09T02:28:04.933Z,101309.16
2024-03-09T02:30:35.756Z,101314.31
2024-03-09T02:33:10.913Z,101314.19
2024-03-09T02:35:40.648Z,101303.78
2024-03-09T02:38:11.884Z,101305.59
2024-03-09T02:40:41.814Z,101303.88
2024-03-09T02:43:14.462Z,101303.78
2024-03-09T02:45:45.231Z,101309.97
2024-03-09T02:48:15.010Z,101291.47
2024-03-09T02:50:45.217Z,101301.09
2024-03-09T02:53:15.138Z,101301.16
2024-03-09T02:55:45.608Z,101292.38
2024-03-09T02:58:18.119Z,101296.78
2024-03-09T03:00:49.132Z,101305.41
2024-03-09T03:03:39.763Z,101299.34
2024-03-09T03:06:09.726Z,101282.78
2024-03-09T03:08:39.448Z,101287.91
2024-03-09T03:11:09.114Z,101282.56
2024-03-09T03:13:38.883Z,101279.94
2024-03-09T03:16:09.226Z,101277.28
2024-03-09T03:18:39.057Z,101267.78
2024-03-09T03:21:08.802Z,101267.63
2024-03-09T03:23:38.974Z,101260.66
2024-03-09T03:26:11.243Z,101264.13
2024-03-09T03:28:41.492Z,101263.22
2024-03-09T03:31:12.306Z,101260.66
2024-03-09T03:33:42.076Z,101256.22
2024-03-09T03:36:18.306Z,101252.75
2024-03-09T03:38:49.304Z,101249.22
2024-03-09T03:41:21.098Z,101245.66
2024-03-09T03:43:50.968Z,101241.09
2024-03-09T03:46:20.782Z,101241.91
2024-03-09T03:48:50.521Z,101235.81
2024-03-09T03:51:20.904Z,101232.31
2024-03-09T03:53:51.207Z,101227.16
2024-03-09T03:56:26.919Z,101229.84
2024-03-09T03:59:02.523Z,101219.09
2024-03-09T04:01:32.242Z,101215.66
2024-03-09T04:04:02.032Z,101217.34
2024-03-09T04:06:31.701Z,101212.13
2024-03-09T04:09:01.704Z,101207.72
2024-03-09T04:11:38.623Z,101210.28
2024-03-09T04:14:08.397Z,101197.19
2024-03-09T04:16:38.785Z,101195.41
2024-03-09T04:19:09.654Z,101190.91
2024-03-09T04:21:40.880Z,101184.81
2024-03-09T04:24:12.463Z,101200.63
2024-03-09T04:26:43.206Z,101199.72
2024-03-09T04:29:13.556Z,101201.44
2024-03-09T04:31:43.304Z,101201.44
2024-03-09T04:34:14.662Z,101193.53
2024-03-09T04:36:48.688Z,101186.53
2024-03-09T04:39:21.510Z,101177.72
2024-03-09T04:41:51.293Z,101168.09
2024-03-09T04:44:27.517Z,101157.53
2024-03-09T04:47:04.505Z,101161.06
2024-03-09T04:49:34.138Z,101170.63
2024-03-09T04:52:03.838Z,101158.38
2024-03-09T04:54:35.273Z,101162.72
2024-03-09T04:57:06.868Z,101154.84
2024-03-09T04:59:36.580Z,101146.91
2024-03-09T05:02:06.894Z,101146.06
2024-03-09T05:04:36.737Z,101145.13
2024-03-09T05:07:06.942Z,101138.09
2024-03-09T05:09:39.710Z,101131.97
2024-03-09T05:12:10.337Z,101122.28
2024-03-09T05:14:40.046Z,101135.41
2024-03-09T05:17:09.753Z,101131.06
2024-03-09T05:19:40.644Z,101129.19
2024-03-09T05:22:10.597Z,101131.06
2024-03-09T05:24:40.289Z,101127.50
2024-03-09T05:27:10.217Z,101127.56
2024-03-09T05:29:42.923Z,101135.38
2024-03-09T05:32:13.397Z,101132.72
2024-03-09T05:34:46.465Z,101132.78
2024-03-09T05:37:16.258Z,101138.09
2024-03-09T05:39:45.971Z,101129.22
2024-03-09T05:42:18.149Z,101131.91
2024-03-09T05:44:48.320Z,101124.88
2024-03-09T05:47:18.020Z,101124.03
2024-03-09T05:49:49.635Z,101120.53
2024-03-09T05:52:19.296Z,101118.69
2024-03-09T05:55:09.189Z,101127.47
2024-03-09T05:57:39.056Z,101120.41
2024-03-09T06:00:11.240Z,101113.47
2024-03-09T06:02:46.190Z,101125.78
2024-03-09T06:05:18.358Z,101132.78
2024-03-09T06:07:48.950Z,101127.50
2024-03-09T06:10:19.911Z,101117.88
2024-03-09T06:12:57.172Z,101125.84
2024-03-09T06:15:28.249Z,101132.91
2024-03-09T06:18:01.414Z,101137.25
2024-03-09T06:20:32.108Z,101139.81
2024-03-09T06:23:03.115Z,101150.25
2024-03-09T06:25:33.532Z,101140.69
2024-03-09T06:28:08.105Z,101143.31
2024-03-09T06:30:39.829Z,101149.50
2024-03-09T06:33:09.727Z,101149.44
2024-03-09T06:35:40.827Z,101146.88
2024-03-09T06:38:12.742Z,101147.78
2024-03-09T06:40:47.992Z,101155.69
2024-03-09T06:43:19.073Z,101154.81
2024-03-09T06:45:50.630Z,101155.63
2024-03-09T06:48:26.053Z,101161.75
2024-03-09T06:50:56.761Z,101161.81
2024-03-09T06:53:28.000Z,101168.91
2024-03-09T06:56:06.046Z,101170.63
2024-03-09T06:58:38.976Z,101172.34
2024-03-09T07:01:08.831Z,101165.41
2024-03-09T07:03:39.050Z,101174.16
2024-03-09T07:06:10.624Z,101181.22
2024-03-09T07:08:40.820Z,101177.66
2024-03-09T07:11:10.569Z,101178.63
2024-03-09T07:13:40.334Z,101187.41
2024-03-09T07:16:10.400Z,101183.97
2024-03-09T07:18:40.045Z,101176.88
2024-03-09T07:21:12.975Z,101177.78
2024-03-09T07:23:42.854Z,101189.13
2024-03-09T07:26:16.529Z,101183.81
2024-03-09T07:28:46.452Z,101183.00
2024-03-09T07:31:17.883Z,101191.06
2024-03-09T07:33:47.562Z,101193.69
2024-03-09T07:36:17.220Z,101193.69
2024-03-09T07:38:48.735Z,101192.72
2024-03-09T07:41:19.284Z,101197.06
2024-03-09T07:43:49.016Z,101198.03
2024-03-09T07:46:18.814Z,101193.69
2024-03-09T07:48:48.460Z,101198.97
2024-03-09T07:51:18.170Z,101197.19
2024-03-09T07:53:47.871Z,101195.53
2024-03-09T07:56:19.408Z,101203.53
2024-03-09T07:58:51.516Z,101204.22
2024-03-09T08:01:21.402Z,101214.75
2024-03-09T08:03:51.258Z,101207.81
2024-03-09T08:06:21.341Z,101214.00
2024-03-09T08:08:51.657Z,101210.59
2024-03-09T08:11:25.403Z,101212.28
2024-03-09T08:13:55.133Z,101214.81
2024-03-09T08:16:24.904Z,101216.63
2024-03-09T08:18:54.641Z,101222.88
2024-03-09T08:21:25.779Z,101220.28
2024-03-09T08:23:55.414Z,101220.28
2024-03-09T08:26:25.114Z,101220.22
2024-03-09T08:28:54.882Z,101228.28
2024-03-09T08:31:26.957Z,101220.38
2024-03-09T08:33:56.683Z,101215.25
2024-03-09T08:36:26.515Z,101222.22
2024-03-09T08:38:56.283Z,101227.53
2024-03-09T08:41:26.163Z,101237.22
2024-03-09T08:43:59.174Z,101231.19
2024-03-09T08:46:29.087Z,101242.63
2024-03-09T08:49:00.190Z,101240.13
2024-03-09T08:51:29.948Z,101240.03
2024-03-09T08:53:59.644Z,101242.78
2024-03-09T08:56:29.852Z,101248.00
2024-03-09T08:58:59.573Z,101250.66
2024-03-09T09:01:29.294Z,101256.91
2024-03-09T09:03:58.850Z,101258.72
2024-03-09T09:06:28.696Z,101255.28
2024-03-09T09:09:00.908Z,101259.63
2024-03-09T09:11:31.082Z,101259.72
2024-03-09T09:14:00.803Z,101263.22
2024-03-09T09:16:30.544Z,101270.22
2024-03-09T09:19:01.270Z,101258.81
2024-03-09T09:21:33.199Z,101260.59
2024-03-09T09:24:02.946Z,101264.19
2024-03-09T09:26:32.932Z,101267.59
2024-03-09T09:29:06.612Z,101265.91
2024-03-09T09:31:36.453Z,101264.28
2024-03-09T09:34:06.173Z,101272.16
2024-03-09T09:36:38.514Z,101273.09
2024-03-09T09:39:08.333Z,101280.13
2024-03-09T09:41:39.260Z,101276.72
2024-03-09T09:44:14.310Z,101288.16
2024-03-09T09:46:44.173Z,101287.19
2024-03-09T09:49:14.768Z,101289.00
2024-03-09T09:51:47.991Z,101297.00
2024-03-09T09:54:19.254Z,101295.28
2024-03-09T09:56:49.223Z,101301.41
2024-03-09T09:59:19.996Z,101307.53
2024-03-09T10:01:49.761Z,101304.94
2024-03-09T10:04:20.045Z,101306.66
2024-03-09T10:06:50.675Z,101319.81
2024-03-09T10:09:35.052Z,101315.50
2024-03-09T10:12:10.005Z,101322.50
2024-03-09T10:14:39.149Z,101323.41
2024-03-09T10:17:14.916Z,101327.00
2024-03-09T10:19:48.256Z,101333.13
2024-03-09T10:22:18.177Z,101340.22
2024-03-09T10:24:59.259Z,101344.63
2024-03-09T10:27:33.292Z,101353.22
2024-03-09T10:30:17.092Z,101349.00
2024-03-09T10:32:47.279Z,101356.03
2024-03-09T10:35:17.511Z,101361.31
2024-03-09T10:37:58.948Z,101359.59
2024-03-09T10:40:29.907Z,101364.00
2024-03-09T10:42:59.891Z,101368.44
2024-03-09T10:45:32.521Z,101372.75
2024-03-09T10:48:10.120Z,101378.09
2024-03-09T10:50:46.833Z,101381.63
2024-03-09T10:53:30.391Z,101373.75
2024-03-09T10:56:22.457Z,101375.38
2024-03-09T10:58:55.481Z,101381.69
2024-03-09T11:01:26.358Z,101386.97
2024-03-09T11:03:56.267Z,101387.06
2024-03-09T11:06:25.931Z,101389.66
2024-03-09T11:08:57.566Z,101396.72
2024-03-09T11:11:34.539Z,101395.91
2024-03-09T11:14:10.772Z,101399.34
2024-03-09T11:16:40.598Z,101395.84
2024-03-09T11:19:16.644Z,101401.13
2024-03-09T11:21:48.334Z,101401.06
2024-03-09T11:24:25.291Z,101409.88
2024-03-09T11:26:59.250Z,101416.00
2024-03-09T11:29:41.685Z,101412.56
2024-03-09T11:32:14.776Z,101409.94
2024-03-09T11:34:45.042Z,101410.81
2024-03-09T11:37:16.002Z,101417.06
2024-03-09T11:39:47.312Z,101416.16
2024-03-09T11:42:21.182Z,101416.16
2024-03-09T11:44:50.983Z,101424.13
2024-03-09T11:47:23.631Z,101428.44
2024-03-09T11:49:53.317Z,101426.75
2024-03-09T11:52:28.880Z,101432.91
2024-03-09T11:55:05.590Z,101431.22
2024-03-09T11:57:43.423Z,101432.91
2024-03-09T12:00:16.741Z,101431.94
2024-03-09T12:02:46.496Z,101436.47
2024-03-09T12:05:19.430Z,101430.34
2024-03-09T12:07:52.609Z,101436.59
2024-03-09T12:10:25.563Z,101442.69
2024-03-09T12:12:56.042Z,101447.97
2024-03-09T12:15:25.819Z,101443.59
2024-03-09T12:17:55.566Z,101445.38
2024-03-09T12:20:25.543Z,101442.75
2024-03-09T12:22:55.289Z,101441.94
2024-03-09T12:25:26.159Z,101441.91
2024-03-09T12:27:56.217Z,101455.03
2024-03-09T12:30:26.769Z,101454.13
2024-03-09T12:32:57.299Z,101453.31
2024-03-09T12:35:27.002Z,101455.91
2024-03-09T12:37:56.794Z,101458.56
2024-03-09T12:40:28.219Z,101461.22
2024-03-09T12:42:57.916Z,101456.91
2024-03-09T12:45:29.146Z,101465.59
2024-03-09T12:48:02.959Z,101466.56
2024-03-09T12:50:34.764Z,101468.31
2024-03-09T12:53:05.654Z,101472.63
2024-03-09T12:55:38.547Z,101481.41
2024-03-09T12:58:09.737Z,101481.44
2024-03-09T13:00:39.481Z,101485.03
2024-03-09T13:03:09.245Z,101477.09
2024-03-09T13:05:38.981Z,101482.34
2024-03-09T13:08:10.242Z,101481.53
2024-03-09T13:10:42.824Z,101482.44
2024-03-09T13:13:16.731Z,101487.63
2024-03-09T13:16:01.141Z,101487.69
2024-03-09T13:18:31.188Z,101494.69
2024-03-09T13:21:01.420Z,101492.94
2024-03-09T13:23:33.331Z,101492.94
2024-03-09T13:26:02.992Z,101491.25
2024-03-09T13:28:33.807Z,101498.25
2024-03-09T13:31:06.727Z,101500.91
2024-03-09T13:33:44.550Z,101500.81
2024-03-09T13:36:25.866Z,101504.31
2024-03-09T13:38:55.606Z,101503.56
2024-03-09T13:41:26.894Z,101502.69
2024-03-09T13:43:59.243Z,101504.41
2024-03-09T13:46:29.050Z,101511.50
2024-03-09T13:48:59.129Z,101513.19
2024-03-09T13:51:29.168Z,101512.28
2024-03-09T13:53:58.813Z,101516.72
2024-03-09T13:56:31.107Z,101521.06
2024-03-09T13:59:00.737Z,101514.13
2024-03-09T14:01:32.460Z,101520.16
2024-03-09T14:04:02.179Z,101514.91
2024-03-09T14:06:50.542Z,101521.97
2024-03-09T14:09:35.772Z,101520.25
2024-03-09T14:12:05.722Z,101522.94
2024-03-09T14:14:35.425Z,101526.41
2024-03-09T14:17:07.015Z,101529.00
2024-03-09T14:19:36.729Z,101529.06
2024-03-09T14:22:13.705Z,101532.56
2024-03-09T14:24:46.963Z,101529.06
2024-03-09T14:27:20.736Z,101540.44
2024-03-09T14:29:55.749Z,101535.22
2024-03-09T14:32:27.553Z,101536.94
2024-03-09T14:34:57.256Z,101527.34
2024-03-09T14:37:26.986Z,101535.28
2024-03-09T14:39:56.599Z,101541.34
2024-03-09T14:42:26.330Z,101537.00
2024-03-09T14:44:57.154Z,101536.09
2024-03-09T14:47:30.196Z,101537.09
2024-03-09T14:50:00.080Z,101540.47
2024-03-09T14:52:31.542Z,101537.88
2024-03-09T14:55:01.736Z,101535.22
2024-03-09T14:57:31.668Z,101537.00
2024-03-09T15:00:02.941Z,101542.28
2024-03-09T15:02:32.970Z,101536.16
2024-03-09T15:05:03.190Z,101537.00
2024-03-09T15:07:35.121Z,101529.25
2024-03-09T15:10:04.960Z,101537.13
2024-03-09T15:12:34.593Z,101538.91
2024-03-09T15:15:05.054Z,101534.38
2024-03-09T15:17:35.056Z,101538.84
2024-03-09T15:20:05.749Z,101545.91
2024-03-09T15:22:35.619Z,101544.09
2024-03-09T15:25:15.796Z,101540.53
2024-03-09T15:27:45.751Z,101543.25
2024-03-09T15:30:16.280Z,101538.03
2024-03-09T15:32:45.978Z,101545.06
2024-03-09T15:35:17.968Z,101554.59
2024-03-09T15:37:47.841Z,101550.25
2024-03-09T15:40:20.108Z,101547.66
2024-03-09T15:42:50.387Z,101553.88
2024-03-09T15:45:23.328Z,101545.91
2024-03-09T15:47:53.737Z,101549.41
2024-03-09T15:50:30.619Z,101554.59
2024-03-09T15:53:00.621Z,101557.38
2024-03-09T15:55:36.335Z,101562.59
2024-03-09T15:58:07.222Z,101554.72
2024-03-09T16:00:44.619Z,101561.75
2024-03-09T16:03:14.462Z,101560.91
2024-03-09T16:05:44.292Z,101559.16
2024-03-09T16:08:18.153Z,101566.09
2024-03-09T16:10:49.177Z,101560.91
2024-03-09T16:13:19.113Z,101563.63
2024-03-09T16:15:54.474Z,101567.06
2024-03-09T16:18:27.414Z,101568.84
2024-03-09T16:20:57.080Z,101564.44
2024-03-09T16:23:26.750Z,101561.78
2024-03-09T16:25:56.494Z,101558.25
2024-03-09T16:28:29.287Z,101562.72
2024-03-09T16:31:02.539Z,101567.16
2024-03-09T16:33:31.793Z,101562.75
2024-03-09T16:36:01.911Z,101563.66
2024-03-09T16:38:31.694Z,101558.44
2024-03-09T16:41:03.920Z,101566.28
2024-03-09T16:43:36.661Z,101572.41
2024-03-09T16:46:09.828Z,101568.06
2024-03-09T16:48:39.517Z,101569.78
2024-03-09T16:51:11.964Z,101567.16
2024-03-09T16:53:42.674Z,101561.91
2024-03-09T16:56:16.573Z,101568.94
2024-03-09T16:58:46.510Z,101573.25
2024-03-09T17:01:16.349Z,101570.69
2024-03-09T17:03:46.073Z,101577.66
2024-03-09T17:06:18.250Z,101588.25
2024-03-09T17:08:47.991Z,101575.94
2024-03-09T17:11:28.358Z,101576.91
2024-03-09T17:14:00.384Z,101583.84
2024-03-09T17:16:30.453Z,101583.00
2024-03-09T17:19:00.110Z,101582.13
2024-03-09T17:21:31.264Z,101590.03
2024-03-09T17:24:03.169Z,101589.13
2024-03-09T17:26:35.039Z,101590.06
2024-03-09T17:29:08.208Z,101586.56
2024-03-09T17:31:40.746Z,101590.91
2024-03-09T17:34:10.542Z,101584.78
2024-03-09T17:36:40.668Z,101583.91
2024-03-09T17:39:10.422Z,101588.31
2024-03-09T17:41:40.356Z,101592.69
2024-03-09T17:44:12.888Z,101587.44
2024-03-09T17:46:42.780Z,101583.91
2024-03-09T17:49:14.412Z,101583.09
2024-03-09T17:51:46.817Z,101582.22
2024-03-09T17:54:17.455Z,101587.47
2024-03-09T17:56:47.592Z,101580.53
2024-03-09T17:59:17.388Z,101586.66
2024-03-09T18:01:47.300Z,101580.50
2024-03-09T18:04:17.017Z,101579.59
2024-03-09T18:06:47.822Z,101581.31
2024-03-09T18:09:27.697Z,101580.47
2024-03-09T18:11:57.449Z,101581.41
2024-03-09T18:14:29.182Z,101583.09
2024-03-09T18:17:07.803Z,101577.84
2024-03-09T18:19:37.584Z,101579.56
2024-03-09T18:22:09.964Z,101579.59
2024-03-09T18:24:40.555Z,101587.47
2024-03-09T18:27:11.105Z,101585.72
2024-03-09T18:29:41.207Z,101592.75
2024-03-09T18:32:11.030Z,101589.28
2024-03-09T18:34:41.420Z,101591.97
2024-03-09T18:37:11.284Z,101599.03
2024-03-09T18:39:40.969Z,101599.78
2024-03-09T18:42:11.517Z,101591.03
2024-03-09T18:44:44.019Z,101598.06
2024-03-09T18:47:13.958Z,101604.22
2024-03-09T18:49:46.672Z,101609.44
2024-03-09T18:52:16.631Z,101611.22
2024-03-09T18:54:46.459Z,101615.63
2024-03-09T18:57:16.210Z,101607.75
2024-03-09T18:59:47.745Z,101605.13
2024-03-09T19:02:17.577Z,101609.59
2024-03-09T19:04:47.456Z,101608.63
2024-03-09T19:07:17.165Z,101610.41
2024-03-09T19:09:46.864Z,101604.22
2024-03-09T19:12:16.709Z,101615.56
2024-03-09T19:14:50.406Z,101603.34
2024-03-09T19:17:23.069Z,101612.13
2024-03-09T19:19:53.047Z,101610.41
2024-03-09T19:22:22.822Z,101608.66
2024-03-09T19:24:52.581Z,101618.31
2024-03-09T19:27:22.809Z,101615.72
2024-03-09T19:29:52.526Z,101618.31
2024-03-09T19:32:22.380Z,101627.97
2024-03-09T19:34:52.608Z,101627.94
2024-03-09T19:37:22.390Z,101628.94
2024-03-09T19:39:52.407Z,101622.81
2024-03-09T19:42:24.282Z,101622.75
2024-03-09T19:44:54.086Z,101620.16
2024-03-09T19:47:24.271Z,101628.03
2024-03-09T19:49:54.098Z,101634.19
2024-03-09T19:52:25.095Z,101624.56
2024-03-09T19:54:55.141Z,101637.72
2024-03-09T19:57:26.825Z,101641.19
2024-03-09T19:59:56.485Z,101636.84
2024-03-09T20:02:29.080Z,101642.97
2024-03-09T20:04:59.557Z,101648.22
2024-03-09T20:07:32.900Z,101651.75
2024-03-09T20:10:02.122Z,101658.69
2024-03-09T20:12:31.922Z,101657.84
2024-03-09T20:15:02.233Z,101660.44
2024-03-09T20:17:32.427Z,101661.38
2024-03-09T20:20:04.245Z,101661.34
2024-03-09T20:22:36.120Z,101657.91
2024-03-09T20:25:06.767Z,101668.44
2024-03-09T20:27:37.096Z,101665.84
2024-03-09T20:30:07.742Z,101665.81
2024-03-09T20:32:37.486Z,101664.91
2024-03-09T20:35:13.735Z,101664.97
2024-03-09T20:37:43.731Z,101672.84
2024-03-09T20:40:21.255Z,101676.31
2024-03-09T20:42:52.612Z,101678.03
2024-03-09T20:45:23.912Z,101675.47
2024-03-09T20:47:56.618Z,101682.44
2024-03-09T20:50:28.564Z,101690.41
2024-03-09T20:53:05.268Z,101691.16
2024-03-09T20:55:35.039Z,101686.91
2024-03-09T20:58:05.138Z,101686.06
2024-03-09T21:00:35.436Z,101682.47
2024-03-09T21:03:05.101Z,101680.75
2024-03-09T21:05:37.452Z,101677.28
2024-03-09T21:08:07.776Z,101678.22
2024-03-09T21:10:37.661Z,101683.47
2024-03-09T21:13:07.487Z,101693.97
2024-03-09T21:15:37.143Z,101693.88
2024-03-09T21:18:07.229Z,101694.88
2024-03-09T21:20:37.822Z,101691.31
2024-03-09T21:23:11.223Z,101700.94
2024-03-09T21:25:44.972Z,101696.59
2024-03-09T21:28:19.066Z,101696.63
2024-03-09T21:30:49.833Z,101690.47
2024-03-09T21:33:19.564Z,101693.09
2024-03-09T21:35:49.463Z,101698.38
2024-03-09T21:38:19.212Z,101697.47
2024-03-09T21:40:51.207Z,101698.28
2024-03-09T21:43:20.890Z,101698.34
2024-03-09T21:45:50.604Z,101704.50
2024-03-09T21:48:20.429Z,101708.91
2024-03-09T21:50:59.699Z,101707.19
2024-03-09T21:53:38.026Z,101704.50
2024-03-09T21:56:08.005Z,101712.38
2024-03-09T21:58:41.565Z,101703.59
2024-03-09T22:01:14.592Z,101705.44
2024-03-09T22:03:44.348Z,101708.84
2024-03-09T22:06:15.483Z,101713.28
2024-03-09T22:08:45.458Z,101716.72
2024-03-09T22:11:15.951Z,101720.25
2024-03-09T22:13:46.651Z,101726.38
2024-03-09T22:16:24.614Z,101725.53
2024-03-09T22:18:55.882Z,101718.50
2024-03-09T22:21:25.863Z,101729.91
2024-03-09T22:23:55.597Z,101736.00
2024-03-09T22:26:26.101Z,101742.09
2024-03-09T22:28:55.979Z,101742.97
2024-03-09T22:31:27.716Z,101741.22
2024-03-09T22:33:57.428Z,101748.25
2024-03-09T22:36:27.269Z,101750.84
2024-03-09T22:38:56.907Z,101756.13
2024-03-09T22:41:27.274Z,101757.81
2024-03-09T22:43:57.235Z,101758.72
2024-03-09T22:46:26.903Z,101756.97
2024-03-09T22:48:56.620Z,101764.84
2024-03-09T22:51:26.296Z,101763.06
2024-03-09T22:53:56.156Z,101760.41
2024-03-09T22:56:26.561Z,101764.75
2024-03-09T22:58:56.328Z,101768.31
2024-03-09T23:01:36.369Z,101770.06
2024-03-09T23:04:06.115Z,101772.63
2024-03-09T23:06:36.599Z,101778.78
2024-03-09T23:09:09.703Z,101776.16
2024-03-09T23:11:39.487Z,101775.28
2024-03-09T23:14:09.237Z,101773.53
2024-03-09T23:16:38.947Z,101777.03
2024-03-09T23:19:11.048Z,101776.16
2024-03-09T23:21:41.224Z,101788.34
2024-03-09T23:24:11.003Z,101780.47
2024-03-09T23:26:42.291Z,101786.59
2024-03-09T23:29:12.128Z,101782.25
2024-03-09T23:31:42.683Z,101783.94
2024-03-09T23:34:12.298Z,101783.09
2024-03-09T23:36:45.269Z,101784.81
2024-03-09T23:39:15.069Z,101789.22
2024-03-09T23:41:45.672Z,101790.91
2024-03-09T23:44:15.340Z,101785.69
2024-03-09T23:46:45.493Z,101786.59
2024-03-09T23:49:16.811Z,101793.56
2024-03-09T23:51:46.425Z,101786.56
2024-03-09T23:54:16.455Z,101789.13
2024-03-09T23:56:49.408Z,101800.56
2024-03-09T23:59:19.150Z,101791.78
